createdAt,value
2022-11-15T00:00:24.890Z,54.40
2022-11-15T00:01:24.870Z,54.30
2022-11-15T00:02:24.912Z,54.19
2022-11-15T00:03:24.840Z,54.09
2022-11-15T00:04:24.838Z,54.19
2022-11-15T00:05:24.852Z,53.99
2022-11-15T00:06:24.804Z,53.99
2022-11-15T00:07:53.416Z,53.99
2022-11-15T00:08:25.784Z,54.19
2022-11-15T00:09:24.774Z,54.30
2022-11-15T00:10:24.793Z,54.40
2022-11-15T00:11:24.778Z,54.32
2022-11-15T00:12:24.752Z,54.19
2022-11-15T00:13:24.717Z,54.19
2022-11-15T00:14:24.706Z,54.19
2022-11-15T00:15:27.733Z,54.30
2022-11-15T00:16:27.724Z,54.30
2022-11-15T00:17:24.654Z,54.32
2022-11-15T00:18:24.655Z,54.22
2022-11-15T00:19:24.646Z,54.22
2022-11-15T00:20:24.653Z,54.22
2022-11-15T00:21:24.656Z,54.53
2022-11-15T00:22:24.605Z,54.32
2022-11-15T00:23:24.601Z,54.53
2022-11-15T00:24:24.582Z,54.53
2022-11-15T00:25:24.573Z,54.74
2022-11-15T00:26:24.559Z,54.43
2022-11-15T00:27:24.547Z,54.43
2022-11-15T00:28:24.528Z,54.43
2022-11-15T00:29:24.569Z,54.32
2022-11-15T00:30:24.501Z,54.22
2022-11-15T00:31:24.476Z,54.84
2022-11-15T00:32:24.497Z,54.32
2022-11-15T00:33:24.460Z,54.32
2022-11-15T00:34:24.467Z,54.25
2022-11-15T00:35:27.438Z,54.45
2022-11-15T00:36:27.425Z,54.35
2022-11-15T00:37:24.407Z,54.97
2022-11-15T00:38:24.407Z,55.07
2022-11-15T00:39:24.360Z,54.86
2022-11-15T00:40:24.400Z,55.30
2022-11-15T00:41:24.367Z,55.20
2022-11-15T00:42:24.390Z,55.10
2022-11-15T00:43:24.339Z,55.30
2022-11-15T00:44:24.334Z,55.62
2022-11-15T00:45:24.281Z,55.41
2022-11-15T00:46:24.272Z,55.43
2022-11-15T00:47:24.250Z,55.22
2022-11-15T00:48:24.281Z,55.02
2022-11-15T00:49:24.300Z,54.82
2022-11-15T00:50:24.211Z,54.71
2022-11-15T00:51:24.201Z,54.71
2022-11-15T00:52:24.203Z,54.71
2022-11-15T00:53:24.202Z,54.61
2022-11-15T00:54:24.171Z,54.91
2022-11-15T00:55:27.186Z,54.61
2022-11-15T00:56:27.153Z,54.50
2022-11-15T00:57:24.126Z,54.53
2022-11-15T00:58:24.114Z,54.63
2022-11-15T00:59:24.123Z,54.74
2022-11-15T01:00:24.087Z,54.32
2022-11-15T01:01:24.220Z,54.53
2022-11-15T01:02:24.055Z,54.53
2022-11-15T01:03:24.034Z,54.53
2022-11-15T01:04:24.055Z,54.53
2022-11-15T01:05:24.019Z,54.32
2022-11-15T01:06:24.043Z,54.22
2022-11-15T01:07:24.082Z,54.22
2022-11-15T01:08:23.985Z,54.32
2022-11-15T01:09:23.955Z,54.01
2022-11-15T01:10:23.997Z,53.91
2022-11-15T01:11:23.926Z,53.80
2022-11-15T01:12:23.917Z,53.80
2022-11-15T01:13:23.910Z,53.80
2022-11-15T01:14:25.517Z,53.93
2022-11-15T01:15:26.907Z,53.83
2022-11-15T01:16:26.884Z,53.62
2022-11-15T01:17:23.854Z,53.62
2022-11-15T01:18:23.846Z,53.72
2022-11-15T01:19:23.828Z,53.62
2022-11-15T01:20:23.856Z,53.62
2022-11-15T01:21:23.801Z,53.52
2022-11-15T01:22:23.791Z,53.52
2022-11-15T01:23:23.768Z,53.62
2022-11-15T01:24:23.754Z,53.31
2022-11-15T01:25:23.740Z,53.41
2022-11-15T01:26:23.749Z,53.31
2022-11-15T01:27:23.720Z,53.20
2022-11-15T01:28:23.705Z,53.10
2022-11-15T01:29:23.700Z,53.00
2022-11-15T01:30:23.680Z,52.80
2022-11-15T01:31:23.690Z,52.69
2022-11-15T01:32:23.641Z,52.69
2022-11-15T01:33:23.631Z,52.69
2022-11-15T01:34:23.635Z,52.59
2022-11-15T01:35:26.667Z,52.59
2022-11-15T01:36:26.661Z,52.59
2022-11-15T01:37:23.580Z,52.59
2022-11-15T01:38:23.574Z,52.48
2022-11-15T01:39:23.562Z,52.48
2022-11-15T01:40:23.551Z,52.48
2022-11-15T01:41:23.529Z,52.38
2022-11-15T01:42:23.540Z,52.38
2022-11-15T01:43:23.502Z,52.48
2022-11-15T01:46:41.386Z,52.69
2022-11-15T01:47:41.007Z,52.90
2022-11-15T01:48:41.825Z,52.72
2022-11-15T01:49:40.779Z,52.82
2022-11-15T01:50:40.749Z,52.82
2022-11-15T01:51:40.796Z,52.82
2022-11-15T01:52:40.801Z,53.12
2022-11-15T01:53:40.721Z,52.82
2022-11-15T01:54:40.771Z,52.92
2022-11-15T01:55:40.711Z,53.03
2022-11-15T01:56:40.704Z,52.72
2022-11-15T01:57:40.722Z,52.61
2022-11-15T01:58:40.632Z,52.61
2022-11-15T01:59:40.692Z,52.72
2022-11-15T02:00:40.683Z,52.74
2022-11-15T02:01:40.657Z,52.95
2022-11-15T02:02:40.629Z,52.74
2022-11-15T02:03:40.663Z,52.43
2022-11-15T02:04:40.570Z,52.22
2022-11-15T02:05:43.575Z,51.91
2022-11-15T02:06:44.511Z,51.99
2022-11-15T02:07:40.582Z,51.89
2022-11-15T02:08:40.622Z,51.57
2022-11-15T02:09:40.501Z,51.26
2022-11-15T02:10:40.474Z,50.95
2022-11-15T02:11:40.550Z,50.64
2022-11-15T02:12:40.473Z,50.54
2022-11-15T02:13:40.496Z,50.74
2022-11-15T02:14:40.504Z,50.54
2022-11-15T02:15:40.365Z,50.54
2022-11-15T02:16:40.402Z,50.74
2022-11-15T02:17:40.383Z,50.43
2022-11-15T02:18:40.372Z,50.41
2022-11-15T02:19:40.406Z,50.54
2022-11-15T02:20:40.371Z,50.74
2022-11-15T02:21:40.327Z,50.85
2022-11-15T02:22:40.347Z,51.06
2022-11-15T02:23:40.352Z,50.85
2022-11-15T02:24:40.327Z,50.95
2022-11-15T02:25:43.295Z,51.29
2022-11-15T02:26:43.298Z,51.39
2022-11-15T02:27:40.215Z,51.18
2022-11-15T02:28:40.275Z,51.29
2022-11-15T02:29:40.228Z,51.39
2022-11-15T02:30:40.176Z,51.39
2022-11-15T02:31:40.297Z,51.50
2022-11-15T02:32:40.234Z,51.60
2022-11-15T02:33:40.158Z,51.70
2022-11-15T02:34:40.226Z,51.93
2022-11-15T02:35:40.152Z,52.04
2022-11-15T02:36:40.158Z,52.04
2022-11-15T02:37:40.119Z,52.25
2022-11-15T02:38:40.103Z,52.14
2022-11-15T02:39:40.088Z,52.14
2022-11-15T02:40:40.032Z,52.25
2022-11-15T02:41:40.149Z,52.25
2022-11-15T02:42:40.088Z,52.25
2022-11-15T02:43:40.039Z,52.25
2022-11-15T02:44:40.022Z,52.04
2022-11-15T02:45:42.981Z,52.04
2022-11-15T02:46:43.014Z,52.04
2022-11-15T02:47:39.980Z,52.04
2022-11-15T02:48:39.949Z,51.62
2022-11-15T02:49:39.910Z,51.73
2022-11-15T02:50:39.982Z,51.73
2022-11-15T02:51:40.002Z,51.73
2022-11-15T02:52:39.963Z,51.73
2022-11-15T02:53:39.923Z,51.52
2022-11-15T02:54:39.973Z,51.52
2022-11-15T02:55:39.843Z,51.62
2022-11-15T02:56:39.852Z,51.60
2022-11-15T02:57:39.903Z,51.73
2022-11-15T02:58:39.856Z,51.81
2022-11-15T02:59:39.853Z,51.62
2022-11-15T03:00:39.777Z,51.73
2022-11-15T03:01:39.852Z,51.73
2022-11-15T03:02:39.762Z,51.73
2022-11-15T03:03:39.764Z,51.83
2022-11-15T03:04:39.793Z,51.83
2022-11-15T03:05:42.735Z,51.73
2022-11-15T03:06:42.718Z,51.73
2022-11-15T03:07:39.696Z,51.62
2022-11-15T03:08:39.675Z,51.50
2022-11-15T03:09:39.674Z,51.39
2022-11-15T03:10:39.710Z,51.29
2022-11-15T03:11:39.721Z,51.08
2022-11-15T03:12:39.624Z,50.98
2022-11-15T03:13:39.601Z,50.87
2022-11-15T03:14:39.598Z,50.64
2022-11-15T03:15:39.580Z,50.74
2022-11-15T03:16:39.613Z,50.54
2022-11-15T03:17:39.553Z,50.43
2022-11-15T03:18:39.544Z,50.33
2022-11-15T03:19:39.526Z,50.23
2022-11-15T03:20:39.547Z,50.21
2022-11-15T03:21:39.585Z,49.90
2022-11-15T03:22:39.468Z,49.69
2022-11-15T03:23:39.478Z,49.69
2022-11-15T03:24:39.470Z,49.25
2022-11-15T03:25:42.469Z,49.15
2022-11-15T03:26:42.453Z,49.04
2022-11-15T03:27:39.488Z,48.94
2022-11-15T03:28:39.420Z,48.94
2022-11-15T03:29:39.408Z,48.94
2022-11-15T03:30:39.400Z,48.92
2022-11-15T03:31:39.496Z,48.92
2022-11-15T03:32:39.389Z,48.92
2022-11-15T03:33:39.369Z,48.92
2022-11-15T03:34:39.357Z,48.71
2022-11-15T03:35:39.299Z,48.71
2022-11-15T03:36:39.291Z,48.69
2022-11-15T03:37:39.321Z,48.61
2022-11-15T03:38:39.360Z,48.50
2022-11-15T03:39:39.260Z,48.48
2022-11-15T03:40:39.261Z,48.48
2022-11-15T03:41:39.316Z,48.48
2022-11-15T03:42:39.272Z,48.48
2022-11-15T03:43:39.201Z,48.48
2022-11-15T03:44:39.162Z,48.48
2022-11-15T03:45:42.175Z,48.38
2022-11-15T03:46:42.229Z,48.38
2022-11-15T03:47:39.138Z,48.38
2022-11-15T03:48:39.167Z,48.38
2022-11-15T03:49:39.110Z,48.38
2022-11-15T03:50:39.080Z,48.38
2022-11-15T03:51:39.053Z,48.38
2022-11-15T03:52:39.096Z,48.36
2022-11-15T03:53:39.077Z,48.36
2022-11-15T03:54:39.034Z,48.25
2022-11-15T03:55:39.014Z,48.25
2022-11-15T03:56:38.977Z,48.25
2022-11-15T03:57:38.993Z,48.15
2022-11-15T03:58:38.964Z,48.15
2022-11-15T03:59:38.992Z,48.05
2022-11-15T04:00:38.937Z,47.94
2022-11-15T04:01:38.996Z,48.02
2022-11-15T04:02:38.935Z,47.81
2022-11-15T04:03:38.958Z,47.61
2022-11-15T04:04:38.869Z,47.61
2022-11-15T04:05:41.868Z,47.51
2022-11-15T04:06:41.858Z,47.49
2022-11-15T04:07:38.846Z,47.38
2022-11-15T04:08:38.818Z,47.28
2022-11-15T04:09:38.870Z,47.17
2022-11-15T04:10:38.839Z,46.97
2022-11-15T04:11:38.881Z,47.05
2022-11-15T04:12:38.808Z,46.84
2022-11-15T04:13:38.789Z,46.84
2022-11-15T04:14:38.791Z,46.64
2022-11-15T04:15:38.719Z,46.53
2022-11-15T04:16:43.757Z,46.53
2022-11-15T04:17:39.709Z,46.41
2022-11-15T04:18:38.709Z,46.41
2022-11-15T04:19:38.719Z,46.31
2022-11-15T04:20:38.662Z,46.31
2022-11-15T04:21:38.650Z,46.20
2022-11-15T04:22:38.649Z,46.20
2022-11-15T04:23:38.661Z,46.20
2022-11-15T04:24:38.592Z,45.98
2022-11-15T04:25:41.590Z,45.87
2022-11-15T04:26:41.677Z,45.87
2022-11-15T04:27:38.600Z,45.87
2022-11-15T04:28:38.594Z,45.87
2022-11-15T04:29:38.668Z,45.77
2022-11-15T04:30:38.601Z,45.77
2022-11-15T04:31:38.665Z,45.77
2022-11-15T04:32:38.544Z,45.67
2022-11-15T04:33:38.565Z,45.77
2022-11-15T04:34:38.566Z,45.67
2022-11-15T04:35:38.522Z,45.67
2022-11-15T04:36:38.452Z,45.77
2022-11-15T04:37:38.547Z,45.67
2022-11-15T04:38:38.433Z,45.77
2022-11-15T04:39:38.444Z,45.56
2022-11-15T04:40:38.477Z,45.54
2022-11-15T04:41:38.437Z,45.54
2022-11-15T04:42:38.385Z,45.75
2022-11-15T04:43:38.404Z,45.34
2022-11-15T04:44:38.364Z,45.44
2022-11-15T04:45:41.334Z,45.54
2022-11-15T04:46:41.323Z,45.44
2022-11-15T04:47:38.347Z,45.44
2022-11-15T04:48:38.325Z,45.44
2022-11-15T04:49:38.260Z,45.44
2022-11-15T04:50:38.245Z,45.44
2022-11-15T04:51:38.228Z,45.44
2022-11-15T04:52:38.224Z,45.34
2022-11-15T04:53:38.248Z,45.34
2022-11-15T04:54:38.229Z,45.54
2022-11-15T04:55:38.197Z,45.44
2022-11-15T04:56:38.185Z,45.34
2022-11-15T04:57:38.176Z,45.54
2022-11-15T04:58:38.139Z,45.34
2022-11-15T04:59:38.187Z,45.34
2022-11-15T05:00:38.159Z,45.44
2022-11-15T05:01:43.586Z,45.44
2022-11-15T05:02:39.109Z,45.34
2022-11-15T05:03:38.068Z,45.54
2022-11-15T05:04:38.039Z,45.34
2022-11-15T05:05:41.079Z,45.34
2022-11-15T05:06:41.038Z,45.34
2022-11-15T05:07:38.000Z,45.65
2022-11-15T05:08:37.988Z,45.34
2022-11-15T05:09:37.987Z,45.44
2022-11-15T05:10:38.023Z,45.23
2022-11-15T05:11:37.968Z,45.34
2022-11-15T05:12:37.950Z,45.54
2022-11-15T05:13:37.949Z,45.44
2022-11-15T05:14:37.920Z,45.23
2022-11-15T05:15:37.926Z,45.13
2022-11-15T05:16:37.974Z,45.21
2022-11-15T05:17:37.900Z,45.34
2022-11-15T05:18:37.887Z,45.01
2022-11-15T05:19:37.885Z,45.01
2022-11-15T05:20:37.864Z,45.21
2022-11-15T05:21:37.837Z,45.21
2022-11-15T05:22:37.892Z,45.01
2022-11-15T05:23:37.830Z,45.01
2022-11-15T05:24:37.811Z,45.01
2022-11-15T05:25:40.794Z,45.21
2022-11-15T05:26:40.802Z,45.01
2022-11-15T05:27:37.761Z,45.01
2022-11-15T05:28:37.775Z,45.01
2022-11-15T05:29:37.733Z,45.11
2022-11-15T05:30:37.714Z,45.11
2022-11-15T05:31:37.809Z,45.11
2022-11-15T05:32:37.684Z,45.01
2022-11-15T05:33:37.715Z,45.01
2022-11-15T05:34:37.672Z,45.11
2022-11-15T05:35:37.657Z,44.90
2022-11-15T05:36:37.625Z,44.80
2022-11-15T05:37:37.616Z,44.80
2022-11-15T05:38:37.644Z,44.80
2022-11-15T05:39:37.595Z,44.78
2022-11-15T05:40:37.728Z,44.68
2022-11-15T05:41:37.664Z,44.68
2022-11-15T05:42:37.551Z,44.68
2022-11-15T05:43:37.578Z,44.78
2022-11-15T05:44:37.527Z,44.68
2022-11-15T05:45:40.550Z,44.89
2022-11-15T05:46:40.539Z,44.78
2022-11-15T05:47:37.509Z,44.68
2022-11-15T05:48:37.455Z,44.57
2022-11-15T05:49:37.459Z,44.37
2022-11-15T05:50:37.497Z,44.37
2022-11-15T05:51:37.447Z,44.17
2022-11-15T05:52:37.429Z,44.17
2022-11-15T05:53:37.409Z,44.17
2022-11-15T05:54:37.388Z,44.14
2022-11-15T05:55:37.379Z,44.35
2022-11-15T05:56:37.380Z,43.93
2022-11-15T05:57:37.343Z,44.14
2022-11-15T05:58:37.331Z,44.14
2022-11-15T05:59:37.337Z,44.04
2022-11-15T06:00:37.363Z,43.93
2022-11-15T06:01:37.321Z,44.14
2022-11-15T06:02:37.332Z,43.84
2022-11-15T06:03:37.296Z,43.63
2022-11-15T06:04:37.231Z,43.73
2022-11-15T06:05:40.283Z,43.61
2022-11-15T06:06:40.280Z,43.51
2022-11-15T06:07:37.298Z,43.61
2022-11-15T06:08:37.186Z,43.40
2022-11-15T06:09:37.183Z,43.51
2022-11-15T06:10:37.175Z,43.30
2022-11-15T06:11:37.305Z,43.19
2022-11-15T06:12:37.144Z,43.07
2022-11-15T06:13:37.128Z,43.18
2022-11-15T06:14:37.112Z,43.07
2022-11-15T06:15:37.104Z,42.86
2022-11-15T06:16:37.084Z,42.86
2022-11-15T06:17:37.139Z,42.66
2022-11-15T06:18:37.053Z,42.86
2022-11-15T06:19:37.041Z,42.86
2022-11-15T06:20:37.038Z,42.77
2022-11-15T06:21:37.006Z,42.77
2022-11-15T06:22:37.013Z,42.66
2022-11-15T06:23:37.076Z,42.77
2022-11-15T06:24:36.979Z,43.28
2022-11-15T06:25:39.958Z,43.18
2022-11-15T06:26:39.968Z,42.86
2022-11-15T06:27:36.917Z,42.97
2022-11-15T06:28:36.905Z,42.86
2022-11-15T06:29:36.920Z,43.28
2022-11-15T06:30:36.921Z,42.97
2022-11-15T06:31:36.869Z,43.28
2022-11-15T06:32:36.849Z,43.07
2022-11-15T06:33:36.893Z,42.77
2022-11-15T06:34:36.822Z,42.77
2022-11-15T06:35:36.829Z,42.86
2022-11-15T06:36:36.826Z,42.95
2022-11-15T06:37:36.790Z,43.05
2022-11-15T06:38:36.821Z,43.05
2022-11-15T06:39:36.777Z,43.57
2022-11-15T06:40:36.748Z,43.16
2022-11-15T06:41:36.862Z,43.36
2022-11-15T06:42:36.733Z,43.26
2022-11-15T06:43:36.725Z,43.16
2022-11-15T06:44:36.754Z,100.00
2022-11-15T06:45:39.674Z,100.00
2022-11-15T06:46:39.716Z,43.36
2022-11-15T06:47:36.643Z,100.00
2022-11-15T06:48:36.682Z,43.26
2022-11-15T06:49:36.640Z,42.95
2022-11-15T06:50:36.752Z,42.85
2022-11-15T06:51:36.598Z,42.85
2022-11-15T06:52:36.594Z,42.74
2022-11-15T06:53:36.565Z,43.05
2022-11-15T06:54:36.565Z,43.05
2022-11-15T06:55:36.538Z,42.85
2022-11-15T06:56:36.562Z,42.85
2022-11-15T06:57:36.505Z,43.05
2022-11-15T06:58:36.489Z,43.46
2022-11-15T06:59:40.457Z,43.36
2022-11-15T07:00:36.466Z,43.87
2022-11-15T07:01:36.703Z,43.46
2022-11-15T07:02:36.467Z,43.36
2022-11-15T07:03:36.409Z,43.57
2022-11-15T07:04:36.403Z,43.46
2022-11-15T07:05:39.418Z,43.36
2022-11-15T07:06:39.458Z,43.26
2022-11-15T07:07:36.428Z,43.57
2022-11-15T07:08:36.379Z,43.26
2022-11-15T07:09:36.338Z,43.05
2022-11-15T07:10:36.332Z,42.95
2022-11-15T07:11:36.433Z,42.95
2022-11-15T07:12:36.292Z,43.16
2022-11-15T07:13:36.739Z,42.95
2022-11-15T07:14:36.299Z,43.05
2022-11-15T07:15:36.270Z,42.74
2022-11-15T07:16:36.260Z,42.74
2022-11-15T07:17:36.251Z,42.74
2022-11-15T07:18:36.232Z,42.64
2022-11-15T07:19:36.213Z,42.42
2022-11-15T07:20:36.241Z,42.32
2022-11-15T07:21:36.168Z,42.00
2022-11-15T07:22:36.169Z,42.00
2022-11-15T07:23:36.123Z,42.00
2022-11-15T07:24:36.142Z,41.90
2022-11-15T07:25:39.153Z,41.58
2022-11-15T07:26:39.114Z,41.27
2022-11-15T07:27:36.112Z,41.16
2022-11-15T07:28:36.115Z,41.27
2022-11-15T07:29:36.064Z,40.22
2022-11-15T07:30:38.923Z,40.33
2022-11-15T07:31:37.064Z,40.53
2022-11-15T07:32:36.043Z,40.53
2022-11-15T07:33:36.034Z,40.51
2022-11-15T07:34:36.003Z,40.51
2022-11-15T07:35:35.989Z,40.51
2022-11-15T07:36:35.974Z,40.31
2022-11-15T07:37:35.937Z,40.00
2022-11-15T07:38:42.184Z,40.31
2022-11-15T07:39:36.947Z,40.10
2022-11-15T07:40:35.993Z,40.10
2022-11-15T07:41:35.949Z,39.78
2022-11-15T07:42:35.907Z,40.08
2022-11-15T07:43:35.878Z,39.98
2022-11-15T07:44:43.341Z,39.98
2022-11-15T07:45:38.828Z,39.98
2022-11-15T07:46:38.815Z,39.86
2022-11-15T07:47:35.778Z,40.17
2022-11-15T07:48:44.155Z,40.17
2022-11-15T07:49:36.790Z,40.37
2022-11-15T07:50:35.783Z,40.37
2022-11-15T07:51:35.737Z,40.58
2022-11-15T07:52:35.719Z,40.88
2022-11-15T07:53:35.712Z,41.09
2022-11-15T07:54:35.731Z,41.27
2022-11-15T07:55:35.683Z,41.58
2022-11-15T07:56:35.698Z,41.68
2022-11-15T07:57:35.660Z,41.99
2022-11-15T07:58:35.640Z,42.30
2022-11-15T07:59:35.680Z,42.19
2022-11-15T08:00:35.621Z,43.22
2022-11-15T08:01:35.809Z,43.32
2022-11-15T08:02:35.739Z,43.43
2022-11-15T08:03:35.851Z,43.71
2022-11-15T08:04:35.564Z,44.12
2022-11-15T08:05:38.572Z,44.12
2022-11-15T08:06:38.557Z,44.32
2022-11-15T08:07:35.608Z,44.53
2022-11-15T08:08:35.514Z,44.82
2022-11-15T08:09:35.498Z,45.43
2022-11-15T08:10:40.459Z,44.82
2022-11-15T08:11:36.464Z,44.82
2022-11-15T08:12:35.512Z,45.33
2022-11-15T08:13:35.605Z,45.94
2022-11-15T08:14:35.446Z,46.15
2022-11-15T08:15:35.456Z,46.45
2022-11-15T08:16:35.418Z,46.94
2022-11-15T08:17:35.388Z,47.25
2022-11-15T08:18:35.416Z,47.56
2022-11-15T08:19:35.359Z,47.76
2022-11-15T08:20:35.382Z,47.86
2022-11-15T08:21:35.415Z,48.17
2022-11-15T08:22:35.337Z,47.99
2022-11-15T08:23:35.507Z,48.17
2022-11-15T08:24:35.298Z,48.71
2022-11-15T08:25:38.308Z,48.58
2022-11-15T08:26:38.288Z,48.50
2022-11-15T08:27:35.340Z,48.89
2022-11-15T08:28:35.266Z,48.99
2022-11-15T08:29:35.233Z,50.12
2022-11-15T08:30:35.240Z,49.40
2022-11-15T08:31:35.257Z,49.91
2022-11-15T08:32:35.190Z,49.30
2022-11-15T08:33:35.446Z,49.30
2022-11-15T08:34:35.163Z,49.40
2022-11-15T08:35:35.182Z,49.09
2022-11-15T08:36:44.550Z,48.99
2022-11-15T08:37:36.128Z,49.40
2022-11-15T08:38:35.414Z,48.99
2022-11-15T08:39:35.109Z,49.09
2022-11-15T08:40:35.082Z,49.19
2022-11-15T08:41:35.105Z,49.09
2022-11-15T08:42:35.045Z,49.40
2022-11-15T08:43:35.315Z,49.71
2022-11-15T08:44:35.034Z,49.60
2022-11-15T08:45:38.027Z,49.68
2022-11-15T08:46:38.007Z,49.48
2022-11-15T08:47:34.999Z,49.48
2022-11-15T08:48:35.202Z,49.48
2022-11-15T08:49:34.945Z,49.58
2022-11-15T08:50:34.968Z,49.79
2022-11-15T08:51:34.917Z,49.58
2022-11-15T08:52:34.906Z,49.79
2022-11-15T08:53:34.892Z,50.60
2022-11-15T08:54:34.876Z,50.40
2022-11-15T08:55:34.887Z,50.71
2022-11-15T08:56:34.854Z,50.81
2022-11-15T08:57:34.877Z,51.32
2022-11-15T08:58:35.003Z,51.21
2022-11-15T08:59:34.808Z,50.89
2022-11-15T09:00:34.837Z,50.99
2022-11-15T09:01:34.921Z,51.50
2022-11-15T09:02:34.759Z,52.22
2022-11-15T09:03:34.745Z,52.52
2022-11-15T09:04:34.736Z,52.93
2022-11-15T09:05:37.796Z,53.03
2022-11-15T09:06:42.114Z,53.44
2022-11-15T09:07:35.746Z,53.34
2022-11-15T09:08:47.544Z,53.54
2022-11-15T09:09:35.674Z,53.64
2022-11-15T09:10:34.652Z,53.85
2022-11-15T09:11:34.777Z,53.64
2022-11-15T09:12:34.623Z,53.75
2022-11-15T09:13:34.601Z,53.95
2022-11-15T09:14:34.612Z,54.26
2022-11-15T09:15:34.573Z,54.05
2022-11-15T09:16:34.602Z,54.05
2022-11-15T09:17:34.589Z,53.85
2022-11-15T09:18:34.862Z,53.95
2022-11-15T09:19:34.524Z,54.05
2022-11-15T09:20:34.521Z,53.95
2022-11-15T09:21:34.541Z,53.85
2022-11-15T09:22:34.507Z,53.95
2022-11-15T09:23:34.477Z,54.36
2022-11-15T09:24:34.456Z,54.46
2022-11-15T09:25:37.435Z,54.77
2022-11-15T09:26:37.437Z,55.08
2022-11-15T09:27:34.430Z,55.38
2022-11-15T09:28:35.021Z,55.18
2022-11-15T09:29:34.409Z,55.18
2022-11-15T09:30:34.369Z,55.49
2022-11-15T09:31:34.457Z,55.38
2022-11-15T09:32:39.012Z,54.97
2022-11-15T09:33:35.560Z,54.97
2022-11-15T09:34:34.309Z,54.57
2022-11-15T09:35:34.289Z,54.67
2022-11-15T09:36:34.316Z,55.08
2022-11-15T09:37:34.319Z,55.49
2022-11-15T09:38:34.930Z,55.28
2022-11-15T09:39:34.231Z,55.49
2022-11-15T09:40:34.229Z,55.49
2022-11-15T09:41:34.282Z,55.89
2022-11-15T09:42:34.192Z,55.89
2022-11-15T09:43:34.232Z,55.58
2022-11-15T09:44:34.163Z,55.79
2022-11-15T09:45:37.144Z,55.89
2022-11-15T09:46:37.151Z,55.56
2022-11-15T09:47:34.116Z,55.66
2022-11-15T09:48:34.660Z,55.76
2022-11-15T09:49:34.144Z,55.66
2022-11-15T09:50:34.071Z,56.07
2022-11-15T09:51:34.055Z,56.07
2022-11-15T09:52:34.044Z,56.07
2022-11-15T09:54:13.669Z,56.27
2022-11-15T09:54:52.856Z,56.17
2022-11-15T09:55:35.004Z,55.56
2022-11-15T09:56:34.041Z,55.66
2022-11-15T09:57:33.985Z,55.46
2022-11-15T09:58:34.465Z,55.66
2022-11-15T09:59:33.956Z,55.94
2022-11-15T10:00:49.595Z,56.45
2022-11-15T10:01:34.999Z,57.27
2022-11-15T10:02:33.896Z,57.88
2022-11-15T10:03:33.901Z,58.16
2022-11-15T10:04:33.875Z,58.16
2022-11-15T10:05:36.905Z,58.57
2022-11-15T10:06:36.870Z,59.05
2022-11-15T10:07:33.865Z,59.56
2022-11-15T10:08:34.336Z,60.38
2022-11-15T10:09:33.803Z,60.69
2022-11-15T10:10:33.799Z,60.99
2022-11-15T10:11:38.657Z,61.40
2022-11-15T10:12:34.758Z,62.39
2022-11-15T10:13:33.740Z,63.00
2022-11-15T10:14:33.730Z,63.00
2022-11-15T10:15:33.709Z,63.10
2022-11-15T10:16:33.701Z,63.41
2022-11-15T10:17:33.724Z,64.32
2022-11-15T10:18:34.243Z,64.32
2022-11-15T10:19:33.660Z,64.40
2022-11-15T10:20:33.669Z,65.01
2022-11-15T10:21:33.710Z,65.62
2022-11-15T10:22:33.624Z,67.35
2022-11-15T10:23:33.656Z,68.17
2022-11-15T10:24:33.591Z,68.98
2022-11-15T10:25:36.572Z,69.80
2022-11-15T10:26:36.581Z,70.82
2022-11-15T10:27:33.543Z,70.68
2022-11-15T10:28:34.131Z,71.60
2022-11-15T10:29:33.576Z,71.50
2022-11-15T10:30:33.510Z,71.60
2022-11-15T10:31:33.501Z,71.09
2022-11-15T10:32:33.476Z,71.19
2022-11-15T10:33:33.469Z,71.30
2022-11-15T10:34:33.447Z,71.56
2022-11-15T10:35:33.497Z,73.60
2022-11-15T10:36:33.519Z,74.21
2022-11-15T10:37:33.407Z,74.21
2022-11-15T10:38:33.878Z,74.52
2022-11-15T10:39:33.399Z,75.02
2022-11-15T10:40:33.383Z,75.23
2022-11-15T10:41:33.496Z,74.72
2022-11-15T10:42:33.339Z,75.13
2022-11-15T10:43:33.353Z,76.86
2022-11-15T10:44:33.319Z,75.43
2022-11-15T10:45:36.297Z,74.72
2022-11-15T10:46:51.666Z,74.62
2022-11-15T10:47:39.256Z,75.02
2022-11-15T10:48:34.411Z,75.20
2022-11-15T10:49:33.248Z,75.20
2022-11-15T10:50:33.238Z,76.11
2022-11-15T10:51:33.221Z,76.82
2022-11-15T10:52:33.218Z,77.23
2022-11-15T10:53:33.245Z,77.64
2022-11-15T10:54:33.180Z,78.15
2022-11-15T10:55:33.165Z,78.41
2022-11-15T10:56:33.240Z,79.74
2022-11-15T10:57:33.143Z,79.53
2022-11-15T10:58:33.616Z,79.33
2022-11-15T10:59:37.760Z,79.23
2022-11-15T11:00:34.135Z,81.02
2022-11-15T11:01:33.278Z,81.43
2022-11-15T11:02:33.070Z,81.73
2022-11-15T11:03:33.054Z,81.84
2022-11-15T11:04:33.062Z,81.90
2022-11-15T11:05:41.245Z,82.20
2022-11-15T11:06:37.026Z,83.62
2022-11-15T11:07:33.094Z,83.26
2022-11-15T11:08:33.266Z,83.87
2022-11-15T11:09:32.978Z,84.78
2022-11-15T11:11:33.947Z,84.99
2022-11-15T11:12:32.985Z,84.38
2022-11-15T11:13:32.916Z,83.76
2022-11-15T11:14:32.905Z,83.46
2022-11-15T11:15:32.888Z,82.85
2022-11-15T11:16:36.290Z,82.65
2022-11-15T11:17:33.890Z,82.95
2022-11-15T11:18:33.190Z,84.23
2022-11-15T11:19:32.858Z,83.73
2022-11-15T11:20:32.810Z,84.09
2022-11-15T11:21:38.460Z,84.80
2022-11-15T11:22:33.836Z,86.22
2022-11-15T11:23:33.165Z,87.61
2022-11-15T11:24:32.762Z,88.52
2022-11-15T11:25:35.776Z,88.52
2022-11-15T11:26:35.742Z,89.54
2022-11-15T11:27:32.722Z,88.93
2022-11-15T11:28:32.975Z,89.03
2022-11-15T11:29:32.715Z,90.25
2022-11-15T11:30:32.674Z,89.94
2022-11-15T11:31:32.665Z,89.03
2022-11-15T11:32:32.652Z,88.93
2022-11-15T11:33:32.642Z,90.05
2022-11-15T11:34:32.645Z,89.74
2022-11-15T11:35:32.635Z,90.14
2022-11-15T11:36:32.673Z,90.05
2022-11-15T11:37:32.583Z,89.94
2022-11-15T11:38:32.919Z,91.02
2022-11-15T11:39:32.558Z,90.81
2022-11-15T11:40:32.579Z,90.20
2022-11-15T11:41:32.528Z,90.11
2022-11-15T11:42:32.508Z,89.80
2022-11-15T11:43:32.497Z,90.11
2022-11-15T11:44:32.478Z,90.11
2022-11-15T11:45:35.497Z,90.31
2022-11-15T11:46:35.468Z,91.42
2022-11-15T11:47:32.446Z,91.52
2022-11-15T11:48:32.705Z,91.52
2022-11-15T11:49:32.439Z,91.83
2022-11-15T11:50:32.420Z,91.42
2022-11-15T11:51:32.409Z,90.96
2022-11-15T11:52:32.392Z,90.75
2022-11-15T11:53:32.360Z,91.26
2022-11-15T11:54:32.340Z,90.59
2022-11-15T11:55:32.332Z,90.19
2022-11-15T11:56:32.411Z,89.78
2022-11-15T11:57:32.301Z,89.28
2022-11-15T11:58:32.439Z,89.42
2022-11-15T11:59:32.311Z,89.22
2022-11-15T12:00:32.254Z,89.01
2022-11-15T12:01:32.502Z,88.71
2022-11-15T12:02:32.341Z,88.20
2022-11-15T12:03:32.214Z,88.16
2022-11-15T12:04:32.203Z,88.46
2022-11-15T12:05:35.192Z,87.85
2022-11-15T12:06:35.225Z,87.34
2022-11-15T12:07:32.226Z,87.65
2022-11-15T12:08:32.321Z,87.85
2022-11-15T12:09:32.135Z,88.76
2022-11-15T12:10:32.115Z,90.19
2022-11-15T12:11:32.108Z,89.42
2022-11-15T12:12:32.120Z,88.97
2022-11-15T12:13:32.077Z,88.67
2022-11-15T12:14:32.057Z,88.67
2022-11-15T12:15:32.048Z,88.67
2022-11-15T12:16:32.152Z,88.16
2022-11-15T12:17:32.052Z,88.76
2022-11-15T12:18:32.327Z,89.52
2022-11-15T12:19:31.999Z,90.44
2022-11-15T12:20:31.977Z,89.42
2022-11-15T12:21:31.960Z,88.50
2022-11-15T12:22:31.970Z,87.79
2022-11-15T12:23:31.943Z,87.38
2022-11-15T12:24:31.920Z,87.38
2022-11-15T12:25:34.910Z,87.08
2022-11-15T12:26:34.911Z,86.98
2022-11-15T12:27:31.913Z,87.08
2022-11-15T12:28:32.252Z,88.10
2022-11-15T12:29:31.880Z,88.30
2022-11-15T12:30:31.833Z,87.29
2022-11-15T12:31:31.833Z,87.89
2022-11-15T12:32:31.803Z,87.89
2022-11-15T12:33:31.825Z,88.20
2022-11-15T12:34:31.783Z,88.30
2022-11-15T12:35:31.804Z,88.10
2022-11-15T12:36:31.755Z,88.16
2022-11-15T12:37:31.766Z,89.11
2022-11-15T12:38:32.039Z,89.31
2022-11-15T12:39:31.717Z,89.11
2022-11-15T12:40:31.697Z,89.72
2022-11-15T12:41:31.707Z,89.83
2022-11-15T12:42:31.675Z,90.33
2022-11-15T12:43:31.705Z,89.31
2022-11-15T12:44:31.637Z,89.22
2022-11-15T12:45:34.631Z,90.03
2022-11-15T12:46:34.629Z,89.22
2022-11-15T12:47:31.598Z,89.01
2022-11-15T12:48:31.949Z,89.68
2022-11-15T12:49:31.612Z,90.19
2022-11-15T12:50:31.560Z,89.58
2022-11-15T12:51:31.550Z,89.33
2022-11-15T12:52:31.530Z,90.55
2022-11-15T12:53:31.520Z,91.16
2022-11-15T12:54:31.508Z,91.16
2022-11-15T12:55:31.523Z,92.54